createdAt,value
2023-04-15T00:01:30.018Z,72.05
2023-04-15T00:06:33.976Z,75.55
2023-04-15T00:11:36.574Z,77.93
2023-04-15T00:16:39.199Z,78.10
2023-04-15T00:21:43.069Z,117.30
2023-04-15T00:26:45.559Z,74.07
2023-04-15T00:31:48.064Z,70.55
2023-04-15T00:36:52.512Z,79.20
2023-04-15T00:41:55.837Z,73.17
2023-04-15T00:46:59.463Z,73.17
2023-04-15T00:52:03.653Z,73.32
2023-04-15T00:57:06.718Z,72.05
2023-04-15T01:02:09.395Z,73.73
2023-04-15T01:07:13.305Z,69.72
2023-04-15T01:12:18.039Z,71.05
2023-04-15T01:17:20.932Z,65.03
2023-04-15T01:22:25.509Z,67.78
2023-04-15T01:27:29.403Z,77.70
2023-04-15T01:32:31.997Z,80.27
2023-04-15T01:37:34.939Z,79.73
2023-04-15T01:42:38.841Z,79.70
2023-04-15T01:47:41.506Z,78.50
2023-04-15T01:52:44.341Z,74.03
2023-04-15T01:57:48.236Z,79.32
2023-04-15T02:02:51.255Z,73.75
2023-04-15T02:07:53.877Z,79.40
2023-04-15T02:12:57.738Z,79.00
2023-04-15T02:18:01.032Z,73.57
2023-04-15T02:23:07.265Z,77.13
2023-04-15T02:28:11.299Z,68.30
2023-04-15T02:33:13.815Z,85.20
2023-04-15T02:38:17.841Z,70.63
2023-04-15T02:43:21.827Z,69.67
2023-04-15T02:48:24.529Z,70.43
2023-04-15T02:53:27.040Z,75.80
2023-04-15T02:58:31.152Z,77.97
2023-04-15T03:03:33.759Z,77.95
2023-04-15T03:08:36.375Z,69.28
2023-04-15T03:13:41.788Z,84.43
2023-04-15T03:18:44.349Z,88.63
2023-04-15T03:23:46.943Z,81.75
2023-04-15T03:28:50.748Z,79.15
2023-04-15T03:33:53.258Z,84.87
2023-04-15T03:38:56.095Z,84.93
2023-04-15T03:43:59.917Z,81.15
2023-04-15T03:49:03.286Z,77.53
2023-04-15T03:54:06.282Z,81.80
2023-04-15T03:59:10.154Z,83.93
2023-04-15T04:04:12.733Z,79.60
2023-04-15T04:09:15.480Z,82.67
2023-04-15T04:14:19.359Z,76.15
2023-04-15T04:19:21.916Z,65.18
2023-04-15T04:24:24.504Z,69.77
2023-04-15T04:29:28.397Z,69.00
2023-04-15T04:34:31.078Z,68.35
2023-04-15T04:39:33.731Z,66.37
2023-04-15T04:44:37.973Z,64.90
2023-04-15T04:49:41.112Z,67.15
2023-04-15T04:54:43.658Z,64.80
2023-04-15T04:59:47.494Z,63.63
2023-04-15T05:04:50.278Z,59.28
2023-04-15T05:09:52.846Z,58.28
2023-04-15T05:14:56.689Z,57.60
2023-04-15T05:19:59.176Z,60.80
2023-04-15T05:25:01.697Z,57.33
2023-04-15T05:30:07.157Z,56.57
2023-04-15T05:35:09.962Z,57.05
2023-04-15T05:40:12.962Z,58.08
2023-04-15T05:45:16.841Z,55.43
2023-04-15T05:50:19.557Z,51.70
2023-04-15T05:55:22.235Z,55.17
2023-04-15T06:00:26.180Z,51.95
2023-04-15T06:05:29.232Z,49.10
2023-04-15T06:10:36.252Z,49.60
2023-04-15T06:15:40.139Z,49.83
2023-04-15T06:20:42.816Z,47.17
2023-04-15T06:25:45.734Z,48.55
2023-04-15T06:30:49.579Z,44.13
2023-04-15T06:35:52.089Z,42.20
2023-04-15T06:40:54.652Z,38.00
2023-04-15T06:45:58.522Z,36.28
2023-04-15T06:51:01.168Z,35.75
2023-04-15T06:56:03.653Z,37.37
2023-04-15T07:01:07.610Z,36.45
2023-04-15T07:06:10.208Z,39.47
2023-04-15T07:11:13.074Z,33.03
2023-04-15T07:16:16.904Z,36.00
2023-04-15T07:21:19.438Z,32.50
2023-04-15T07:26:21.956Z,32.73
2023-04-15T07:31:26.178Z,32.90
2023-04-15T07:36:29.301Z,28.75
2023-04-15T07:41:31.945Z,25.10
2023-04-15T07:46:37.178Z,26.40
2023-04-15T07:51:39.960Z,27.08
2023-04-15T07:56:42.556Z,25.67
2023-04-15T08:01:46.597Z,24.63
2023-04-15T08:06:50.252Z,23.33
2023-04-15T08:11:52.751Z,23.13
2023-04-15T08:16:56.574Z,22.37
2023-04-15T08:21:59.125Z,20.47
2023-04-15T08:27:04.399Z,19.90
2023-04-15T08:32:09.639Z,22.77
2023-04-15T08:37:12.736Z,22.50
2023-04-15T08:42:18.616Z,24.75
2023-04-15T08:47:27.567Z,24.20
2023-04-15T08:52:32.220Z,21.20
2023-04-15T08:57:34.934Z,21.40
2023-04-15T09:02:39.954Z,23.45
2023-04-15T09:07:42.827Z,20.93
2023-04-15T09:12:45.428Z,21.67
2023-04-15T09:17:49.437Z,21.52
2023-04-15T09:22:53.107Z,20.85
2023-04-15T09:27:57.445Z,20.60
2023-04-15T09:33:03.159Z,23.40
2023-04-15T09:38:07.821Z,24.38
2023-04-15T09:43:12.870Z,20.10
2023-04-15T09:48:20.725Z,20.25
2023-04-15T09:53:24.695Z,22.17
2023-04-15T09:58:28.789Z,19.13
2023-04-15T10:03:35.497Z,20.00
2023-04-15T10:08:38.391Z,17.27
2023-04-15T10:13:41.333Z,16.52
2023-04-15T10:18:46.524Z,20.07
2023-04-15T10:23:49.481Z,15.15
2023-04-15T10:28:53.508Z,15.05
2023-04-15T10:33:58.316Z,14.47
2023-04-15T10:39:01.349Z,14.55
2023-04-15T10:44:05.668Z,13.15
2023-04-15T10:49:11.396Z,15.30
2023-04-15T10:54:15.961Z,16.07
2023-04-15T10:59:19.209Z,17.90
2023-04-15T11:04:54.705Z,14.70
2023-04-15T11:09:57.489Z,14.00
2023-04-15T11:15:00.034Z,15.95
2023-04-15T11:20:04.516Z,16.77
2023-04-15T11:25:07.556Z,16.60
2023-04-15T11:30:20.024Z,15.15
2023-04-15T11:35:23.833Z,14.18
2023-04-15T11:40:28.122Z,14.93
2023-04-15T11:45:30.867Z,14.23
2023-04-15T11:50:35.358Z,13.95
2023-04-15T11:55:46.842Z,15.52
2023-04-15T12:00:52.334Z,17.03
2023-04-15T12:06:18.317Z,32.75
2023-04-15T12:11:21.420Z,17.50
2023-04-15T12:16:24.875Z,17.00
2023-04-15T12:21:34.443Z,24.02
2023-04-15T12:26:39.232Z,21.08
2023-04-15T12:31:52.443Z,18.93
2023-04-15T12:36:56.763Z,18.83
2023-04-15T12:42:00.091Z,27.02
2023-04-15T12:47:03.133Z,21.27
2023-04-15T12:52:07.392Z,21.57
2023-04-15T12:57:10.019Z,22.05
2023-04-15T13:02:12.649Z,22.70
2023-04-15T13:07:16.547Z,25.73
2023-04-15T13:12:19.113Z,23.23
2023-04-15T13:17:21.966Z,27.20
2023-04-15T13:22:25.869Z,23.97
2023-04-15T13:27:28.609Z,26.73
2023-04-15T13:32:31.238Z,27.40
2023-04-15T13:37:35.291Z,25.67
2023-04-15T13:42:37.773Z,28.87
2023-04-15T13:47:41.908Z,27.27
2023-04-15T13:52:45.867Z,28.25
2023-04-15T13:57:48.756Z,27.50
2023-04-15T14:02:51.878Z,30.48
2023-04-15T14:07:55.899Z,27.10
2023-04-15T14:12:58.533Z,32.37
2023-04-15T14:18:01.979Z,33.40
2023-04-15T14:23:05.851Z,29.52
2023-04-15T14:28:08.356Z,32.20
2023-04-15T14:33:10.889Z,31.57
2023-04-15T14:38:14.716Z,29.10
2023-04-15T14:43:17.254Z,29.88
2023-04-15T14:48:19.775Z,29.23
2023-04-15T14:53:23.602Z,29.15
2023-04-15T14:58:26.135Z,31.30
2023-04-15T15:03:29.151Z,31.13
2023-04-15T15:08:33.069Z,42.47
2023-04-15T15:13:35.927Z,32.88
2023-04-15T15:18:38.460Z,30.98
2023-04-15T15:23:42.329Z,27.77
2023-04-15T15:28:45.449Z,26.38
2023-04-15T15:33:47.936Z,30.50
2023-04-15T15:38:51.778Z,27.87
2023-04-15T15:43:55.114Z,27.88
2023-04-15T15:48:57.952Z,31.73
2023-04-15T15:54:01.800Z,37.90
2023-04-15T15:59:04.519Z,30.53
2023-04-15T16:04:07.499Z,30.52
2023-04-15T16:09:11.785Z,30.52
2023-04-15T16:14:14.908Z,29.90
2023-04-15T16:19:17.398Z,27.95
2023-04-15T16:24:21.358Z,30.35
2023-04-15T16:29:23.875Z,28.70
2023-04-15T16:34:26.363Z,29.23
2023-04-15T16:39:30.445Z,29.60
2023-04-15T16:44:33.417Z,33.50
2023-04-15T16:49:35.951Z,31.33
2023-04-15T16:54:41.603Z,27.92
2023-04-15T16:59:44.132Z,26.77
2023-04-15T17:04:46.601Z,28.47
2023-04-15T17:09:50.487Z,26.85
2023-04-15T17:14:52.959Z,25.90
2023-04-15T17:19:55.490Z,27.20
2023-04-15T17:24:59.372Z,25.38
2023-04-15T17:30:01.976Z,24.17
2023-04-15T17:35:06.303Z,26.80
2023-04-15T17:40:11.702Z,26.13
2023-04-15T17:45:14.960Z,26.02
2023-04-15T17:50:17.456Z,27.48
2023-04-15T17:55:22.076Z,25.27
2023-04-15T18:00:24.901Z,25.75
2023-04-15T18:05:27.483Z,23.63
2023-04-15T18:10:31.301Z,24.57
2023-04-15T18:15:34.231Z,26.75
2023-04-15T18:20:36.900Z,26.70
2023-04-15T18:25:43.351Z,25.93
2023-04-15T18:30:45.866Z,22.97
2023-04-15T18:35:50.054Z,29.13
2023-04-15T18:40:54.121Z,27.52
2023-04-15T18:45:56.722Z,28.83
2023-04-15T18:50:59.436Z,27.75
2023-04-15T18:56:03.442Z,30.85
2023-04-15T19:01:06.298Z,31.50
2023-04-15T19:06:08.931Z,30.08
2023-04-15T19:11:12.858Z,26.70
2023-04-15T19:16:15.561Z,26.90
2023-04-15T19:21:18.383Z,27.90
2023-04-15T19:26:22.286Z,27.55
2023-04-15T19:31:24.953Z,29.52
2023-04-15T19:36:28.489Z,30.47
2023-04-15T19:41:32.655Z,30.23
2023-04-15T19:46:35.357Z,28.88
2023-04-15T19:51:38.107Z,31.80
2023-04-15T19:56:42.018Z,30.30
2023-04-15T20:01:44.994Z,28.95
2023-04-15T20:06:47.648Z,31.10
2023-04-15T20:12:44.976Z,31.90
2023-04-15T20:17:15.961Z,30.13
2023-04-15T20:22:18.584Z,30.95
2023-04-15T20:27:22.610Z,27.73
2023-04-15T20:32:25.273Z,30.83
2023-04-15T20:37:29.512Z,32.63
2023-04-15T20:42:35.429Z,32.07
2023-04-15T20:47:38.064Z,33.08
2023-04-15T20:52:40.939Z,36.67
2023-04-15T20:57:44.925Z,29.23
2023-04-15T21:02:47.596Z,31.90
2023-04-15T21:07:50.300Z,34.33
2023-04-15T21:12:54.171Z,31.02
2023-04-15T21:17:56.865Z,31.63
2023-04-15T21:22:59.610Z,35.03
2023-04-15T21:28:04.139Z,25.88
2023-04-15T21:33:06.755Z,32.20
2023-04-15T21:38:09.384Z,33.85
2023-04-15T21:43:13.346Z,32.40
2023-04-15T21:48:15.994Z,30.90
2023-04-15T21:53:18.763Z,64.47
2023-04-15T21:58:22.773Z,34.35
2023-04-15T22:03:25.798Z,33.70
2023-04-15T22:08:28.592Z,35.63
2023-04-15T22:13:32.572Z,33.72
2023-04-15T22:18:35.140Z,27.90
2023-04-15T22:23:37.722Z,36.93
2023-04-15T22:28:41.674Z,36.28
2023-04-15T22:33:44.217Z,33.45
2023-04-15T22:38:46.910Z,36.83
2023-04-15T22:43:50.820Z,37.57
2023-04-15T22:48:54.074Z,37.85
2023-04-15T22:53:57.093Z,34.67
2023-04-15T22:59:01.037Z,38.20
2023-04-15T23:04:05.000Z,40.30
2023-04-15T23:09:09.800Z,34.10
2023-04-15T23:14:13.753Z,41.33
2023-04-15T23:19:16.483Z,42.08
2023-04-15T23:24:19.020Z,45.20
2023-04-15T23:29:22.816Z,40.07
2023-04-15T23:34:25.467Z,46.27
2023-04-15T23:39:27.996Z,45.33
2023-04-15T23:44:31.831Z,40.40
2023-04-15T23:49:34.376Z,46.30
2023-04-15T23:54:36.873Z,45.35
2023-04-15T23:59:40.719Z,40.80
